Time;durP1;ratioP1;P1;durP2;ratioP2;P2;SDS_P1;SDS_P2;PMS_P1;PMS_P2;Temp;Humidity;BMP_temperature;BMP_pressure;BME280_temperature;BME280_humidity;BME280_pressure;Samples;Min_cycle;Max_cycle;Signal;HPM_P1;HPM_P2
2022/03/15 00:01:01;;;;;;;;;;;8.30;77.60;;;;;;5048069;28;19909;-76
2022/03/15 00:03:26;;;;;;;;;;;8.40;77.40;;;;;;5050912;28;20599;-77
2022/03/15 00:05:52;;;;;;;;;;;8.30;77.50;;;;;;5051194;28;20007;-76
2022/03/15 00:08:19;;;;;;;;;;;8.30;77.50;;;;;;5048925;28;19913;-77
2022/03/15 00:10:45;;;;;;;;;;;8.30;77.30;;;;;;5045048;28;19947;-76
2022/03/15 00:13:11;;;;;;;;;;;8.30;77.60;;;;;;5037781;28;19920;-77
2022/03/15 00:15:38;;;;;;;;;;;8.30;77.20;;;;;;5053839;28;19913;-77
2022/03/15 00:18:04;;;;;;;;;;;8.20;77.30;;;;;;5044354;28;19912;-76
2022/03/15 00:20:29;;;;;;;;;;;8.30;77.20;;;;;;5037071;28;19924;-78
2022/03/15 00:22:57;;;;;;;;;;;8.20;77.30;;;;;;5049156;28;20312;-78
2022/03/15 00:25:22;;;;;;;;;;;8.20;77.20;;;;;;5047831;28;19991;-76
2022/03/15 00:27:51;;;;;;;;;;;8.10;77.60;;;;;;5049115;28;19968;-76
2022/03/15 00:30:17;;;;;;;;;;;8.10;77.60;;;;;;5037602;28;19939;-76
2022/03/15 00:32:43;;;;;;;;;;;8.10;77.90;;;;;;5037876;28;19997;-77
2022/03/15 00:35:16;;;;;;;;;;;8.10;78.10;;;;;;5046316;28;19917;-77
2022/03/15 00:37:42;;;;;;;;;;;8.10;78.10;;;;;;5045530;28;19931;-78
2022/03/15 00:40:08;;;;;;;;;;;8.10;78.10;;;;;;5039511;28;20061;-77
2022/03/15 00:42:34;;;;;;;;;;;8.00;78.30;;;;;;5052772;28;19913;-77
2022/03/15 00:45:01;;;;;;;;;;;8.00;78.20;;;;;;5044889;28;19924;-77
2022/03/15 00:47:27;;;;;;;;;;;8.00;78.10;;;;;;5055813;28;20328;-76
2022/03/15 00:49:53;;;;;;;;;;;7.90;78.10;;;;;;5044187;28;19934;-76
2022/03/15 00:52:18;;;;;;;;;;;7.90;78.00;;;;;;5037752;28;19923;-77
2022/03/15 00:54:44;;;;;;;;;;;7.90;78.50;;;;;;5033594;28;19935;-77
2022/03/15 00:57:10;;;;;;;;;;;7.80;79.00;;;;;;5050546;28;19909;-77
2022/03/15 00:59:36;;;;;;;;;;;7.90;78.90;;;;;;5049046;28;20142;-77
2022/03/15 01:02:02;;;;;;;;;;;7.80;79.00;;;;;;5039557;28;19913;-76
2022/03/15 01:04:28;;;;;;;;;;;7.80;78.80;;;;;;5037544;28;19921;-77
2022/03/15 01:06:53;;;;;;;;;;;7.70;78.60;;;;;;5036574;28;19917;-77
2022/03/15 01:09:18;;;;;;;;;;;7.70;78.80;;;;;;5038331;28;19944;-77
2022/03/15 01:11:44;;;;;;;;;;;7.70;79.10;;;;;;5034025;28;19917;-77
2022/03/15 01:14:09;;;;;;;;;;;7.60;78.90;;;;;;5038180;28;20289;-79
2022/03/15 01:16:35;;;;;;;;;;;7.60;79.50;;;;;;5043857;28;19920;-78
2022/03/15 01:19:00;;;;;;;;;;;7.60;79.30;;;;;;5044659;28;19913;-78
2022/03/15 01:21:26;;;;;;;;;;;7.70;79.30;;;;;;5032964;28;19921;-78
2022/03/15 01:23:53;;;;;;;;;;;7.70;79.30;;;;;;5065348;28;19928;-78
2022/03/15 01:26:18;;;;;;;;;;;7.70;78.90;;;;;;5042457;28;19913;-76
2022/03/15 01:28:44;;;;;;;;;;;7.60;78.90;;;;;;5042379;28;20385;-77
2022/03/15 01:31:11;;;;;;;;;;;7.60;79.10;;;;;;5038861;28;19925;-76
2022/03/15 01:33:37;;;;;;;;;;;7.60;79.00;;;;;;5042229;28;19923;-77
2022/03/15 01:36:02;;;;;;;;;;;7.60;78.80;;;;;;5050818;28;19909;-78
2022/03/15 01:38:28;;;;;;;;;;;7.60;78.80;;;;;;5040597;28;20142;-78
2022/03/15 01:40:53;;;;;;;;;;;7.60;78.80;;;;;;5036137;28;19913;-76
2022/03/15 01:43:19;;;;;;;;;;;7.60;78.70;;;;;;5050923;28;19932;-76
2022/03/15 01:45:44;;;;;;;;;;;7.60;79.30;;;;;;5043734;28;20000;-78
2022/03/15 01:48:10;;;;;;;;;;;7.60;79.30;;;;;;5031260;28;20346;-78
2022/03/15 01:50:36;;;;;;;;;;;7.60;79.20;;;;;;5044002;28;19932;-77
2022/03/15 01:53:02;;;;;;;;;;;7.60;79.30;;;;;;5039421;28;20008;-77
2022/03/15 01:55:27;;;;;;;;;;;7.60;79.50;;;;;;5037747;28;20091;-76
2022/03/15 01:57:53;;;;;;;;;;;7.50;79.80;;;;;;5051470;28;19915;-78
2022/03/15 02:00:20;;;;;;;;;;;7.50;79.70;;;;;;5043684;28;19919;-78
2022/03/15 02:02:46;;;;;;;;;;;7.50;79.70;;;;;;5037693;28;19916;-77
2022/03/15 02:05:12;;;;;;;;;;;7.50;79.50;;;;;;5034649;28;20611;-78
2022/03/15 02:07:38;;;;;;;;;;;7.50;79.90;;;;;;5039887;28;19913;-78
2022/03/15 02:10:04;;;;;;;;;;;7.50;80.00;;;;;;5050131;28;19913;-78
2022/03/15 02:12:29;;;;;;;;;;;7.50;80.10;;;;;;5044436;28;19917;-77
2022/03/15 02:15:01;;;;;;;;;;;7.50;79.70;;;;;;5045412;28;20242;-77
2022/03/15 02:17:27;;;;;;;;;;;7.50;79.90;;;;;;5054292;28;20010;-77
2022/03/15 02:19:52;;;;;;;;;;;7.40;80.30;;;;;;5043195;28;19913;-76
2022/03/15 02:22:19;;;;;;;;;;;7.40;80.00;;;;;;5053994;28;20325;-77
2022/03/15 02:24:45;;;;;;;;;;;7.30;80.40;;;;;;5044979;28;19944;-77
2022/03/15 02:27:10;;;;;;;;;;;7.30;80.40;;;;;;5050829;28;20396;-77
2022/03/15 02:29:36;;;;;;;;;;;7.30;80.30;;;;;;5052603;28;19916;-76
2022/03/15 02:32:02;;;;;;;;;;;7.30;80.30;;;;;;5044337;28;19963;-77
2022/03/15 02:34:27;;;;;;;;;;;7.30;80.40;;;;;;5040372;28;20357;-77
2022/03/15 02:36:52;;;;;;;;;;;7.30;80.10;;;;;;5030149;28;19913;-76
2022/03/15 02:39:18;;;;;;;;;;;7.30;80.30;;;;;;5045710;28;19966;-76
2022/03/15 02:41:43;;;;;;;;;;;7.30;80.40;;;;;;5045267;28;19913;-76
2022/03/15 02:44:09;;;;;;;;;;;7.30;80.30;;;;;;5047336;28;19923;-76
2022/03/15 02:46:36;;;;;;;;;;;7.30;80.40;;;;;;5036605;28;19921;-76
2022/03/15 02:49:02;;;;;;;;;;;7.20;80.30;;;;;;5053295;28;19913;-76
2022/03/15 02:51:27;;;;;;;;;;;7.20;80.10;;;;;;5047553;28;19917;-76
2022/03/15 02:53:53;;;;;;;;;;;7.20;80.10;;;;;;5037546;28;19939;-76
2022/03/15 02:56:19;;;;;;;;;;;7.20;80.20;;;;;;5036658;28;19912;-76
2022/03/15 02:58:45;;;;;;;;;;;7.30;79.90;;;;;;5033036;28;19920;-76
2022/03/15 03:01:10;;;;;;;;;;;7.20;80.50;;;;;;5042463;28;20323;-76
2022/03/15 03:03:37;;;;;;;;;;;7.30;80.20;;;;;;5029488;28;19936;-75
2022/03/15 03:06:03;;;;;;;;;;;7.30;80.40;;;;;;5036516;28;19912;-76
2022/03/15 03:08:28;;;;;;;;;;;7.20;80.50;;;;;;5058732;28;19919;-76
2022/03/15 03:10:55;;;;;;;;;;;7.20;80.40;;;;;;5032190;28;20000;-76
2022/03/15 03:13:27;;;;;;;;;;;7.20;80.80;;;;;;5041666;28;20327;-76
2022/03/15 03:15:54;;;;;;;;;;;7.10;80.90;;;;;;5032338;28;19919;-76
2022/03/15 03:18:20;;;;;;;;;;;7.20;80.90;;;;;;5050725;28;19913;-76
2022/03/15 03:20:46;;;;;;;;;;;7.10;81.10;;;;;;5048501;28;20377;-76
2022/03/15 03:23:11;;;;;;;;;;;7.20;81.10;;;;;;5042022;28;19921;-76
2022/03/15 03:25:37;;;;;;;;;;;7.20;80.90;;;;;;5028922;28;19975;-77
2022/03/15 03:28:05;;;;;;;;;;;7.10;80.70;;;;;;5034118;28;19994;-76
2022/03/15 03:30:31;;;;;;;;;;;7.20;80.40;;;;;;5047630;28;19913;-77
2022/03/15 03:32:56;;;;;;;;;;;7.20;80.00;;;;;;5046156;28;20008;-75
2022/03/15 03:35:22;;;;;;;;;;;7.20;80.10;;;;;;5064318;28;19909;-76
2022/03/15 03:37:48;;;;;;;;;;;7.20;79.90;;;;;;5065398;28;19951;-77
2022/03/15 03:40:13;;;;;;;;;;;7.20;79.70;;;;;;5051302;28;19913;-77
2022/03/15 03:42:38;;;;;;;;;;;7.20;79.80;;;;;;5047279;28;19967;-76
2022/03/15 03:45:05;;;;;;;;;;;7.10;79.90;;;;;;5047706;28;19920;-77
2022/03/15 03:47:30;;;;;;;;;;;7.00;80.70;;;;;;5046602;28;19912;-76
2022/03/15 03:49:55;;;;;;;;;;;7.10;80.60;;;;;;5037966;28;19975;-76
2022/03/15 03:52:21;;;;;;;;;;;7.00;80.60;;;;;;5046834;28;20336;-76
2022/03/15 03:54:47;;;;;;;;;;;7.00;80.80;;;;;;5036411;28;20012;-76
2022/03/15 03:57:12;;;;;;;;;;;7.00;81.00;;;;;;5046912;28;19916;-76
2022/03/15 03:59:38;;;;;;;;;;;7.00;81.20;;;;;;5052179;28;20007;-76
2022/03/15 04:02:03;;;;;;;;;;;7.00;81.00;;;;;;5050909;28;20127;-77
2022/03/15 04:04:29;;;;;;;;;;;7.00;80.80;;;;;;5033349;28;19906;-77
2022/03/15 04:06:55;;;;;;;;;;;7.00;80.80;;;;;;5039496;28;19913;-77
2022/03/15 04:09:21;;;;;;;;;;;7.00;80.70;;;;;;5042312;28;20289;-76
2022/03/15 04:11:47;;;;;;;;;;;7.00;80.80;;;;;;5039656;28;19968;-76
2022/03/15 04:14:12;;;;;;;;;;;7.00;80.70;;;;;;5052252;28;19920;-77
2022/03/15 04:16:38;;;;;;;;;;;6.90;80.70;;;;;;5050505;28;19913;-75
2022/03/15 04:19:04;;;;;;;;;;;6.90;80.90;;;;;;5051599;28;19909;-77
2022/03/15 04:21:30;;;;;;;;;;;6.90;80.90;;;;;;5042048;28;19913;-76
2022/03/15 04:23:56;;;;;;;;;;;6.90;80.90;;;;;;5037342;28;19917;-77
2022/03/15 04:26:22;;;;;;;;;;;6.90;80.90;;;;;;5043647;28;20425;-77
2022/03/15 04:28:47;;;;;;;;;;;6.80;81.20;;;;;;5044433;28;19971;-76
2022/03/15 04:31:13;;;;;;;;;;;6.80;81.30;;;;;;5045153;28;19975;-76
2022/03/15 04:33:39;;;;;;;;;;;6.80;81.30;;;;;;5049830;28;20003;-76
2022/03/15 04:36:04;;;;;;;;;;;6.80;81.30;;;;;;5046965;28;20395;-75
2022/03/15 04:38:30;;;;;;;;;;;6.80;82.30;;;;;;5043292;28;20676;-76
2022/03/15 04:40:57;;;;;;;;;;;6.80;82.10;;;;;;5045630;28;20266;-76
2022/03/15 04:43:23;;;;;;;;;;;6.80;82.30;;;;;;5058796;28;20555;-74
2022/03/15 04:45:50;;;;;;;;;;;6.80;82.10;;;;;;5049459;28;19920;-77
2022/03/15 04:48:16;;;;;;;;;;;6.80;82.00;;;;;;5039988;28;20008;-76
2022/03/15 04:50:42;;;;;;;;;;;6.90;81.70;;;;;;5037695;28;19920;-76
2022/03/15 04:53:07;;;;;;;;;;;6.90;81.60;;;;;;5035764;28;19921;-75
2022/03/15 04:55:33;;;;;;;;;;;6.90;81.50;;;;;;5032173;28;19917;-76
2022/03/15 04:57:58;;;;;;;;;;;6.90;81.50;;;;;;5046129;28;19913;-77
2022/03/15 05:00:24;;;;;;;;;;;6.90;81.70;;;;;;5050942;28;19912;-76
2022/03/15 05:02:49;;;;;;;;;;;6.80;82.00;;;;;;5047908;28;19955;-77
2022/03/15 05:05:15;;;;;;;;;;;6.80;82.30;;;;;;5033837;28;19924;-77
2022/03/15 05:07:40;;;;;;;;;;;6.80;82.70;;;;;;5037701;28;19913;-75
2022/03/15 05:12:50;;;;;;;;;;;6.80;82.70;;;;;;5044760;28;19955;-77
2022/03/15 05:15:15;;;;;;;;;;;6.80;83.00;;;;;;5044364;28;19917;-77
2022/03/15 05:17:41;;;;;;;;;;;6.80;82.80;;;;;;5035180;28;19913;-77
2022/03/15 05:20:07;;;;;;;;;;;6.90;82.90;;;;;;5049843;28;20399;-77
2022/03/15 05:22:33;;;;;;;;;;;6.90;82.40;;;;;;5040129;28;19920;-76
2022/03/15 05:24:59;;;;;;;;;;;7.00;82.10;;;;;;5038745;28;20288;-74
2022/03/15 05:27:25;;;;;;;;;;;7.00;81.70;;;;;;5033838;28;19920;-75
2022/03/15 05:29:51;;;;;;;;;;;7.00;81.40;;;;;;5041758;28;19909;-74
2022/03/15 05:32:16;;;;;;;;;;;7.00;81.30;;;;;;5037958;28;20024;-76
2022/03/15 05:34:42;;;;;;;;;;;6.90;81.30;;;;;;5030629;28;19909;-76
2022/03/15 05:37:08;;;;;;;;;;;6.90;80.90;;;;;;5035947;28;19931;-75
2022/03/15 05:39:34;;;;;;;;;;;6.80;81.70;;;;;;5029892;28;20368;-76
2022/03/15 05:41:59;;;;;;;;;;;6.70;81.80;;;;;;5069266;28;20439;-75
2022/03/15 05:44:26;;;;;;;;;;;6.80;81.60;;;;;;5041076;28;19963;-76
2022/03/15 05:46:51;;;;;;;;;;;6.80;81.50;;;;;;5045785;28;19920;-74
2022/03/15 05:49:17;;;;;;;;;;;6.70;81.40;;;;;;5048859;28;19913;-76
2022/03/15 05:51:43;;;;;;;;;;;6.80;81.30;;;;;;5038142;28;19921;-76
2022/03/15 05:54:08;;;;;;;;;;;6.70;81.70;;;;;;5030491;28;19917;-74
2022/03/15 05:56:34;;;;;;;;;;;6.60;82.00;;;;;;5049403;28;19917;-76
2022/03/15 05:58:59;;;;;;;;;;;6.60;82.70;;;;;;5050326;28;19916;-75
2022/03/15 06:01:26;;;;;;;;;;;6.60;82.50;;;;;;5048329;28;19925;-76
2022/03/15 06:03:53;;;;;;;;;;;6.60;82.80;;;;;;5039249;28;19913;-75
2022/03/15 06:06:21;;;;;;;;;;;6.70;82.50;;;;;;5045861;28;19985;-77
2022/03/15 06:08:47;;;;;;;;;;;6.70;82.50;;;;;;5038116;28;20293;-77
2022/03/15 06:11:13;;;;;;;;;;;6.70;82.90;;;;;;5040139;28;19938;-77
2022/03/15 06:13:38;;;;;;;;;;;6.80;82.90;;;;;;5040569;28;19925;-76
2022/03/15 06:16:04;;;;;;;;;;;6.80;82.70;;;;;;5036867;28;19938;-76
2022/03/15 06:18:29;;;;;;;;;;;6.90;82.60;;;;;;5050249;28;19956;-77
2022/03/15 06:20:55;;;;;;;;;;;6.80;83.00;;;;;;5032771;28;19953;-77
2022/03/15 06:23:22;;;;;;;;;;;6.90;82.70;;;;;;5034038;28;19913;-76
2022/03/15 06:25:48;;;;;;;;;;;7.00;82.30;;;;;;5034687;28;19956;-77
2022/03/15 06:28:13;;;;;;;;;;;7.00;82.10;;;;;;5048662;28;19952;-77
2022/03/15 06:30:39;;;;;;;;;;;7.00;82.10;;;;;;5048881;28;19913;-76
2022/03/15 06:33:04;;;;;;;;;;;7.10;81.90;;;;;;5047744;28;19917;-78
2022/03/15 06:35:30;;;;;;;;;;;7.00;81.90;;;;;;5044937;28;19913;-77
2022/03/15 06:37:55;;;;;;;;;;;7.00;82.10;;;;;;5048152;28;19919;-77
2022/03/15 06:40:23;;;;;;;;;;;7.10;81.90;;;;;;5048769;28;19955;-77
2022/03/15 06:42:48;;;;;;;;;;;7.10;82.10;;;;;;5041252;28;19932;-79
2022/03/15 06:45:15;;;;;;;;;;;7.10;82.30;;;;;;5094620;23;19926;-85
2022/03/15 06:47:40;;;;;;;;;;;7.20;82.40;;;;;;5022925;28;19916;-85
2022/03/15 06:50:15;;;;;;;;;;;7.30;82.20;;;;;;5026879;28;20345;-85
2022/03/15 06:52:42;;;;;;;;;;;7.30;82.00;;;;;;5035674;28;19988;-85
2022/03/15 06:55:08;;;;;;;;;;;7.40;81.70;;;;;;5034232;28;20024;-86
2022/03/15 06:57:34;;;;;;;;;;;7.50;81.50;;;;;;5031622;28;19909;-86
2022/03/15 07:00:01;;;;;;;;;;;7.50;81.40;;;;;;5030371;28;20050;-85
2022/03/15 07:02:27;;;;;;;;;;;7.60;81.30;;;;;;5030105;28;19913;-86
2022/03/15 07:04:52;;;;;;;;;;;7.60;81.20;;;;;;5032080;28;19921;-85
2022/03/15 07:07:19;;;;;;;;;;;7.70;81.00;;;;;;5029637;28;19913;-84
2022/03/15 07:09:44;;;;;;;;;;;7.80;80.90;;;;;;5033695;28;19909;-85
2022/03/15 07:12:10;;;;;;;;;;;7.80;80.70;;;;;;5038084;28;19917;-85
2022/03/15 07:14:35;;;;;;;;;;;7.80;80.70;;;;;;5039355;28;20012;-84
2022/03/15 07:17:01;;;;;;;;;;;7.80;80.60;;;;;;5036057;28;20002;-85
2022/03/15 07:19:27;;;;;;;;;;;7.90;80.60;;;;;;5036266;28;19916;-85
2022/03/15 07:21:53;;;;;;;;;;;8.00;80.70;;;;;;5035146;28;19917;-85
2022/03/15 07:24:18;;;;;;;;;;;8.10;80.90;;;;;;5037090;28;20413;-85
2022/03/15 07:26:44;;;;;;;;;;;8.10;81.00;;;;;;5035815;28;19916;-85
2022/03/15 07:29:09;;;;;;;;;;;8.10;80.80;;;;;;5036007;28;20293;-86
2022/03/15 07:31:35;;;;;;;;;;;8.20;80.90;;;;;;5043699;28;19920;-86
2022/03/15 07:34:00;;;;;;;;;;;8.20;81.00;;;;;;5049832;28;19989;-85
2022/03/15 07:38:55;;;;;;;;;;;8.30;80.80;;;;;;5035087;28;19925;-85
2022/03/15 07:41:23;;;;;;;;;;;8.30;80.90;;;;;;5070055;28;19921;-84
2022/03/15 07:43:50;;;;;;;;;;;8.30;80.90;;;;;;5032079;28;19927;-84
2022/03/15 07:46:15;;;;;;;;;;;8.40;80.80;;;;;;5041138;28;19916;-84
2022/03/15 07:48:41;;;;;;;;;;;8.50;80.60;;;;;;5057841;28;19913;-83
2022/03/15 07:51:06;;;;;;;;;;;8.60;80.40;;;;;;5054531;28;19925;-85
2022/03/15 07:53:32;;;;;;;;;;;8.60;79.80;;;;;;5038632;28;19919;-85
2022/03/15 07:55:59;;;;;;;;;;;8.70;79.40;;;;;;5040089;28;19917;-86
2022/03/15 07:58:25;;;;;;;;;;;8.70;79.10;;;;;;5046439;28;19980;-85
2022/03/15 08:00:54;;;;;;;;;;;8.70;78.60;;;;;;5040615;28;19956;-85
2022/03/15 08:03:22;;;;;;;;;;;8.80;78.70;;;;;;5055831;28;19901;-83
2022/03/15 08:05:47;;;;;;;;;;;8.80;78.80;;;;;;5046998;28;19921;-84
2022/03/15 08:08:13;;;;;;;;;;;8.90;79.20;;;;;;5042941;28;19909;-84
2022/03/15 08:10:38;;;;;;;;;;;9.00;79.00;;;;;;5041972;28;19917;-85
2022/03/15 08:13:04;;;;;;;;;;;9.10;78.80;;;;;;5035274;28;19929;-84
2022/03/15 08:15:29;;;;;;;;;;;9.10;79.20;;;;;;5038512;28;19909;-83
2022/03/15 08:17:55;;;;;;;;;;;9.20;79.20;;;;;;5049362;28;19931;-84
2022/03/15 08:20:20;;;;;;;;;;;9.20;79.30;;;;;;5041810;28;19921;-83
2022/03/15 08:22:46;;;;;;;;;;;9.20;79.20;;;;;;5034787;28;20380;-84
2022/03/15 08:25:12;;;;;;;;;;;9.30;78.90;;;;;;5040533;28;19920;-83
2022/03/15 08:27:38;;;;;;;;;;;9.30;78.30;;;;;;5035994;28;20099;-84
2022/03/15 08:30:03;;;;;;;;;;;9.40;77.20;;;;;;5040351;28;20055;-83
2022/03/15 08:32:29;;;;;;;;;;;9.50;76.90;;;;;;5039589;28;19913;-82
2022/03/15 08:34:54;;;;;;;;;;;9.50;75.90;;;;;;5050982;28;19901;-83
2022/03/15 08:37:20;;;;;;;;;;;9.60;75.30;;;;;;5048283;28;19928;-84
2022/03/15 08:39:46;;;;;;;;;;;9.80;74.70;;;;;;5041187;28;19909;-82
2022/03/15 08:42:11;;;;;;;;;;;9.70;75.40;;;;;;5044680;28;19919;-84
2022/03/15 08:44:38;;;;;;;;;;;9.80;74.80;;;;;;5038827;28;19910;-83
2022/03/15 08:47:03;;;;;;;;;;;9.90;75.10;;;;;;5025358;28;19917;-84
2022/03/15 08:49:29;;;;;;;;;;;9.90;74.00;;;;;;5038499;28;20000;-84
2022/03/15 08:51:54;;;;;;;;;;;9.90;73.60;;;;;;5037026;28;19924;-84
2022/03/15 08:54:22;;;;;;;;;;;9.70;73.20;;;;;;5039286;28;20367;-82
2022/03/15 08:56:48;;;;;;;;;;;9.50;73.50;;;;;;5038577;28;19920;-83
2022/03/15 08:59:15;;;;;;;;;;;9.50;73.90;;;;;;5038079;28;19909;-82
2022/03/15 09:01:41;;;;;;;;;;;9.50;74.50;;;;;;5038750;28;19909;-81
2022/03/15 09:04:07;;;;;;;;;;;9.40;73.70;;;;;;5038083;28;19939;-82
2022/03/15 09:06:32;;;;;;;;;;;9.30;74.70;;;;;;5035007;28;19914;-83
2022/03/15 09:09:00;;;;;;;;;;;9.40;75.00;;;;;;5036790;28;19925;-82
2022/03/15 09:11:26;;;;;;;;;;;9.50;75.20;;;;;;5038682;28;19967;-83
2022/03/15 09:13:52;;;;;;;;;;;9.70;75.40;;;;;;5037802;28;20375;-84
2022/03/15 09:16:17;;;;;;;;;;;9.80;75.60;;;;;;5037925;28;19913;-85
2022/03/15 09:18:43;;;;;;;;;;;10.00;75.70;;;;;;5036985;28;19948;-83
2022/03/15 09:21:09;;;;;;;;;;;10.10;75.60;;;;;;5049227;28;19905;-81
2022/03/15 09:23:35;;;;;;;;;;;10.20;75.50;;;;;;5052949;28;19913;-83
2022/03/15 09:26:01;;;;;;;;;;;10.10;75.40;;;;;;5035839;28;19913;-85
2022/03/15 09:28:26;;;;;;;;;;;10.20;74.40;;;;;;5053194;28;19909;-85
2022/03/15 09:31:00;;;;;;;;;;;10.30;74.70;;;;;;5035240;28;20414;-84
2022/03/15 09:33:26;;;;;;;;;;;10.40;74.70;;;;;;5035885;28;19913;-85
2022/03/15 09:35:51;;;;;;;;;;;10.30;74.50;;;;;;5033782;28;19913;-84
2022/03/15 09:38:19;;;;;;;;;;;10.20;74.80;;;;;;5033157;28;20016;-85
2022/03/15 09:40:49;;;;;;;;;;;10.30;74.70;;;;;;5034273;28;20052;-85
2022/03/15 09:43:20;;;;;;;;;;;10.40;74.60;;;;;;5034837;28;19960;-84
2022/03/15 09:45:47;;;;;;;;;;;10.30;74.30;;;;;;5028606;28;19959;-84
2022/03/15 09:48:15;;;;;;;;;;;10.30;74.00;;;;;;5034560;28;19917;-84
2022/03/15 09:50:41;;;;;;;;;;;10.30;73.30;;;;;;5034688;28;20268;-85
2022/03/15 09:53:09;;;;;;;;;;;10.30;72.90;;;;;;5041264;28;19932;-85
2022/03/15 09:55:37;;;;;;;;;;;10.30;73.30;;;;;;5040673;28;20233;-86
2022/03/15 09:58:03;;;;;;;;;;;10.30;72.90;;;;;;5056061;28;19920;-86
2022/03/15 10:00:29;;;;;;;;;;;10.20;73.60;;;;;;5044919;28;19940;-86
2022/03/15 10:02:55;;;;;;;;;;;10.30;73.60;;;;;;5044717;28;19940;-85
2022/03/15 10:05:21;;;;;;;;;;;10.30;72.10;;;;;;5052217;28;19917;-86
2022/03/15 10:07:46;;;;;;;;;;;10.30;71.80;;;;;;5066226;28;19917;-86
2022/03/15 10:10:13;;;;;;;;;;;10.40;71.80;;;;;;5054808;28;19913;-85
2022/03/15 10:12:39;;;;;;;;;;;10.50;72.10;;;;;;5041208;28;19921;-84
2022/03/15 10:15:12;;;;;;;;;;;10.60;71.80;;;;;;5036214;28;19912;-86
2022/03/15 10:17:44;;;;;;;;;;;10.60;72.50;;;;;;5049125;28;19909;-86
2022/03/15 10:20:25;;;;;;;;;;;10.90;71.10;;;;;;5038474;28;19917;-85
2022/03/15 10:29:28;;;;;;;;;;;11.60;69.60;;;;;;5001140;28;19936;-83
2022/03/15 10:35:34;;;;;;;;;;;11.60;68.30;;;;;;4967481;28;20031;-83
2022/03/15 10:38:00;;;;;;;;;;;11.70;65.30;;;;;;4981155;28;19928;-81
2022/03/15 10:40:35;;;;;;;;;;;11.90;65.70;;;;;;5021646;28;19949;-82
2022/03/15 10:43:27;;;;;;;;;;;11.90;65.60;;;;;;5015094;28;19921;-85
2022/03/15 10:46:26;;;;;;;;;;;11.90;65.60;;;;;;5036131;28;19901;-84
2022/03/15 10:49:00;;;;;;;;;;;11.60;65.80;;;;;;5050348;28;19984;-85
2022/03/15 10:51:28;;;;;;;;;;;11.80;65.60;;;;;;5037826;28;19921;-82
2022/03/15 10:54:00;;;;;;;;;;;12.00;66.00;;;;;;5030757;28;20276;-81
2022/03/15 10:56:25;;;;;;;;;;;12.00;65.00;;;;;;5032078;28;19909;-82
2022/03/15 10:59:01;;;;;;;;;;;11.90;65.40;;;;;;5032353;28;20366;-82
2022/03/15 11:01:28;;;;;;;;;;;12.00;64.80;;;;;;5030906;28;19919;-82
2022/03/15 11:03:54;;;;;;;;;;;12.00;65.40;;;;;;5042839;28;19905;-82
2022/03/15 11:06:38;;;;;;;;;;;11.90;65.30;;;;;;5058022;28;19909;-82
2022/03/15 11:09:23;;;;;;;;;;;11.70;63.90;;;;;;5050979;28;19984;-82
2022/03/15 11:11:52;;;;;;;;;;;11.70;64.60;;;;;;5032505;28;20122;-81
2022/03/15 11:14:28;;;;;;;;;;;11.90;63.20;;;;;;5033451;28;20368;-80
2022/03/15 11:16:54;;;;;;;;;;;12.00;64.10;;;;;;5031011;28;19913;-81
2022/03/15 11:19:20;;;;;;;;;;;12.00;64.00;;;;;;5035178;28;19920;-80
2022/03/15 11:21:46;;;;;;;;;;;12.30;63.20;;;;;;5046902;28;19913;-81
2022/03/15 11:24:17;;;;;;;;;;;12.50;62.60;;;;;;5033931;28;19916;-82
2022/03/15 11:26:44;;;;;;;;;;;12.30;62.70;;;;;;5033876;28;19932;-82
2022/03/15 11:29:13;;;;;;;;;;;12.30;63.50;;;;;;5034502;28;20256;-82
2022/03/15 11:31:39;;;;;;;;;;;12.60;62.40;;;;;;5049620;28;19995;-82
2022/03/15 11:34:05;;;;;;;;;;;12.80;62.20;;;;;;5034269;28;20495;-81
2022/03/15 11:36:31;;;;;;;;;;;12.30;60.80;;;;;;5037305;28;19956;-81
2022/03/15 11:38:57;;;;;;;;;;;12.40;62.10;;;;;;5038234;28;20391;-81
2022/03/15 11:41:23;;;;;;;;;;;12.40;61.00;;;;;;5034849;28;19909;-81
2022/03/15 11:44:00;;;;;;;;;;;12.60;62.10;;;;;;5034073;28;19917;-81
2022/03/15 11:46:43;;;;;;;;;;;12.70;61.10;;;;;;5024208;28;19913;-82
2022/03/15 11:49:18;;;;;;;;;;;12.80;61.60;;;;;;5032200;28;19917;-81
2022/03/15 11:51:58;;;;;;;;;;;13.10;60.50;;;;;;5032761;28;19914;-82
2022/03/15 11:54:35;;;;;;;;;;;13.10;59.90;;;;;;5044094;28;19920;-82
2022/03/15 11:57:13;;;;;;;;;;;13.20;59.60;;;;;;5034346;28;19924;-82
2022/03/15 11:59:52;;;;;;;;;;;13.20;59.60;;;;;;5036817;28;19909;-81
2022/03/15 12:02:28;;;;;;;;;;;13.20;60.30;;;;;;5074646;28;19905;-81
2022/03/15 12:04:55;;;;;;;;;;;13.40;60.80;;;;;;5033983;28;19928;-81
2022/03/15 12:07:34;;;;;;;;;;;13.10;60.10;;;;;;5036590;28;19920;-81
2022/03/15 12:10:00;;;;;;;;;;;13.10;61.30;;;;;;5028043;28;19971;-82
2022/03/15 12:12:40;;;;;;;;;;;;;;;;;;;;;
2022/03/15 12:15:19;;;;;;;;;;;13.00;59.20;;;;;;5048149;28;19980;-85
2022/03/15 12:24:04;;;;;;;;;;;13.10;59.80;;;;;;5003227;23;19918;-84
2022/03/15 12:26:30;;;;;;;;;;;12.90;59.60;;;;;;5057215;28;19921;-83
2022/03/15 12:29:02;;;;;;;;;;;12.80;60.50;;;;;;5054978;28;20058;-81
2022/03/15 12:31:36;;;;;;;;;;;12.80;61.20;;;;;;5057505;28;19978;-84
2022/03/15 12:34:03;;;;;;;;;;;13.00;60.70;;;;;;5060964;28;19912;-82
2022/03/15 12:36:35;;;;;;;;;;;13.10;59.90;;;;;;5059774;28;19943;-82
2022/03/15 12:39:07;;;;;;;;;;;13.10;60.40;;;;;;5057214;28;19929;-84
2022/03/15 12:41:32;;;;;;;;;;;13.00;60.60;;;;;;5052320;28;19917;-84
2022/03/15 12:43:58;;;;;;;;;;;13.10;59.70;;;;;;5050349;28;19909;-82
2022/03/15 12:46:30;;;;;;;;;;;13.10;59.90;;;;;;5058307;28;20541;-83
2022/03/15 12:49:04;;;;;;;;;;;13.10;60.40;;;;;;5055414;28;19909;-82
2022/03/15 12:51:37;;;;;;;;;;;13.30;60.70;;;;;;5054907;28;19916;-84
2022/03/15 12:54:12;;;;;;;;;;;13.20;60.50;;;;;;5051865;28;19913;-81
2022/03/15 12:56:43;;;;;;;;;;;13.30;60.90;;;;;;5057194;28;20623;-84
2022/03/15 12:59:16;;;;;;;;;;;13.40;59.40;;;;;;5056960;28;19940;-82
2022/03/15 13:01:46;;;;;;;;;;;13.40;59.40;;;;;;5057920;28;19912;-81
2022/03/15 13:04:11;;;;;;;;;;;13.20;59.00;;;;;;5056936;28;19913;-80
2022/03/15 13:06:40;;;;;;;;;;;13.10;60.30;;;;;;5043773;28;20304;-83
2022/03/15 13:09:06;;;;;;;;;;;13.00;60.10;;;;;;5054043;28;20007;-84
2022/03/15 13:11:34;;;;;;;;;;;12.90;59.70;;;;;;5045199;28;19933;-81
2022/03/15 13:13:59;;;;;;;;;;;12.90;59.80;;;;;;5050849;28;19967;-82
2022/03/15 13:16:25;;;;;;;;;;;13.00;61.00;;;;;;5056487;28;19909;-82
2022/03/15 13:18:50;;;;;;;;;;;12.90;60.20;;;;;;5058647;28;19919;-82
2022/03/15 13:21:16;;;;;;;;;;;13.00;60.50;;;;;;5051379;28;19909;-82
2022/03/15 13:23:45;;;;;;;;;;;13.10;60.40;;;;;;5055366;28;20447;-84
2022/03/15 13:26:12;;;;;;;;;;;13.10;60.40;;;;;;5076083;28;19976;-84
2022/03/15 13:28:44;;;;;;;;;;;13.20;59.50;;;;;;5082522;28;19917;-79
2022/03/15 13:31:11;;;;;;;;;;;13.20;59.80;;;;;;5067965;28;19912;-81
2022/03/15 13:33:41;;;;;;;;;;;13.20;59.70;;;;;;5050436;28;20398;-81
2022/03/15 13:36:10;;;;;;;;;;;13.30;59.90;;;;;;5045786;28;20352;-81
2022/03/15 13:38:39;;;;;;;;;;;13.20;60.50;;;;;;5049564;28;19920;-82
2022/03/15 13:41:06;;;;;;;;;;;13.50;60.60;;;;;;5046396;28;19920;-80
2022/03/15 13:43:32;;;;;;;;;;;13.50;60.40;;;;;;5044805;28;20125;-77
2022/03/15 13:46:02;;;;;;;;;;;13.60;60.40;;;;;;5053322;28;19927;-79
2022/03/15 13:48:32;;;;;;;;;;;13.60;61.00;;;;;;5048972;28;19917;-81
2022/03/15 13:50:58;;;;;;;;;;;13.50;60.40;;;;;;5050555;28;20003;-82
2022/03/15 13:53:24;;;;;;;;;;;13.20;61.00;;;;;;5042606;28;19921;-80
2022/03/15 13:55:53;;;;;;;;;;;13.20;61.00;;;;;;5050327;28;19912;-80
2022/03/15 13:58:26;;;;;;;;;;;13.50;61.50;;;;;;5051844;28;19966;-79
2022/03/15 14:01:03;;;;;;;;;;;13.60;60.60;;;;;;5048738;28;20055;-79
2022/03/15 14:03:30;;;;;;;;;;;13.30;59.00;;;;;;5047483;28;19947;-79
2022/03/15 14:06:00;;;;;;;;;;;13.00;59.90;;;;;;5053697;28;20381;-82
2022/03/15 14:08:25;;;;;;;;;;;12.90;60.40;;;;;;5050198;28;19928;-81
2022/03/15 14:10:53;;;;;;;;;;;13.00;60.90;;;;;;5048286;28;20013;-81
2022/03/15 14:13:21;;;;;;;;;;;13.10;60.00;;;;;;5052841;28;19917;-82
2022/03/15 14:15:47;;;;;;;;;;;13.20;60.40;;;;;;5044718;28;20677;-81
2022/03/15 14:18:25;;;;;;;;;;;13.20;60.20;;;;;;5048201;28;19939;-83
2022/03/15 14:20:51;;;;;;;;;;;13.10;60.40;;;;;;5050918;28;20285;-82
2022/03/15 14:23:17;;;;;;;;;;;13.20;61.40;;;;;;5068327;28;20143;-83
2022/03/15 14:25:43;;;;;;;;;;;13.20;61.50;;;;;;5063713;28;19975;-81
2022/03/15 14:28:09;;;;;;;;;;;13.30;60.70;;;;;;5067164;28;19920;-81
2022/03/15 14:30:36;;;;;;;;;;;13.40;60.70;;;;;;5050407;28;19927;-80
2022/03/15 14:33:07;;;;;;;;;;;13.30;61.40;;;;;;5052331;28;19925;-84
2022/03/15 14:35:34;;;;;;;;;;;13.20;61.20;;;;;;5053136;28;19966;-82
2022/03/15 14:38:05;;;;;;;;;;;13.10;61.60;;;;;;5053048;28;19940;-84
2022/03/15 14:40:30;;;;;;;;;;;13.10;62.30;;;;;;5050087;28;19936;-82
2022/03/15 14:42:58;;;;;;;;;;;13.10;61.40;;;;;;5052259;28;19913;-82
2022/03/15 14:45:26;;;;;;;;;;;13.20;61.10;;;;;;5053617;28;19913;-83
2022/03/15 14:47:55;;;;;;;;;;;13.60;59.90;;;;;;5052898;28;19913;-82